Pultneyville, New York
Current Conditions -  °F | °C
As of 2:54 AM on Friday 31 Oct 2014 (Local Time) from KROC Reporting Station
Overcast Overcast  
Wind Chill: 39°   Ceiling: 4800
Heat Index: 42°   Visibility: 10mi
Dew Point: 37°   Wind: 5mph
Humidity: 82%   Direction: 220°SW
Pressure: 30"   Gusts: NA
Location:  43.28°N, 77.19°W
Report Text: KROC 310654Z 22004KT 10SM BKN048 OVC065 06/03 A3000 RMK AO2 SLP167 BINOVC T00560028
Loading
Personal Weather Stations






























Interactive Weather Map
Tropical Storm Tracking
New forecast layout! Learn more

10-Day Weather Forecast

Advertisements
Track Severe Weather on mobile